Time;durP1;ratioP1;P1;durP2;ratioP2;P2;SDS_P1;SDS_P2;PMS_P1;PMS_P2;Temp;Humidity;BMP_temperature;BMP_pressure;BME280_temperature;BME280_humidity;BME280_pressure;Samples;Min_cycle;Max_cycle;Signal;HPM_P1;HPM_P2
2022/09/10 00:01:30;;;;;;;5.63;2.17;;;15.80;88.40;;;;;;5054148;28;20084;-39
2022/09/10 00:03:56;;;;;;;7.95;2.03;;;15.80;88.40;;;;;;5055363;28;20465;-39
2022/09/10 00:06:26;;;;;;;6.80;3.03;;;15.90;88.30;;;;;;5055392;28;20043;-38
2022/09/10 00:08:56;;;;;;;4.78;1.90;;;15.90;88.30;;;;;;5055573;28;20017;-38
2022/09/10 00:11:23;;;;;;;6.23;2.17;;;16.00;88.00;;;;;;5055124;28;20117;-39
2022/09/10 00:13:49;;;;;;;13.77;2.17;;;16.00;88.10;;;;;;5054973;28;20041;-38
2022/09/10 00:16:19;;;;;;;5.70;2.67;;;16.00;87.80;;;;;;5054216;28;20162;-39
2022/09/10 00:18:46;;;;;;;5.22;2.10;;;16.00;87.60;;;;;;5056165;28;20091;-39
2022/09/10 00:21:15;;;;;;;9.50;2.53;;;16.00;87.60;;;;;;5055177;28;20035;-38
2022/09/10 00:23:44;;;;;;;4.88;1.60;;;16.00;87.70;;;;;;5055261;28;20033;-39
2022/09/10 00:26:24;;;;;;;3.90;2.17;;;16.00;87.40;;;;;;5055536;28;20029;-39
2022/09/10 00:28:51;;;;;;;4.90;1.53;;;16.10;87.70;;;;;;5055468;28;20021;-38
2022/09/10 00:31:18;;;;;;;4.60;2.10;;;16.00;87.60;;;;;;5055011;28;20363;-40
2022/09/10 00:33:44;;;;;;;7.18;1.95;;;16.00;87.80;;;;;;5055156;28;20479;-38
2022/09/10 00:36:18;;;;;;;13.77;2.35;;;16.00;87.90;;;;;;5054911;28;20099;-38
2022/09/10 00:38:45;;;;;;;5.47;1.52;;;16.00;87.60;;;;;;5054676;28;20469;-38
2022/09/10 00:41:12;;;;;;;4.60;1.42;;;16.10;87.40;;;;;;5054168;28;20025;-38
2022/09/10 00:43:52;;;;;;;3.58;1.70;;;16.00;87.00;;;;;;5054188;28;20026;-38
2022/09/10 00:46:41;;;;;;;;;;;16.00;87.30;;;;;;5055063;28;20027;-39
2022/09/10 00:49:19;;;;;;;2.90;1.90;;;16.00;87.00;;;;;;5054105;28;20357;-38
2022/09/10 00:51:46;;;;;;;5.20;2.72;;;16.00;86.40;;;;;;5054075;28;20036;-39
2022/09/10 00:54:14;;;;;;;7.95;1.85;;;16.10;86.20;;;;;;5054197;28;20029;-38
2022/09/10 00:56:39;;;;;;;3.92;1.95;;;16.20;86.20;;;;;;5053960;28;20035;-39
2022/09/10 00:59:08;;;;;;;3.75;1.77;;;16.20;86.10;;;;;;5052479;28;20021;-38
2022/09/10 01:01:35;;;;;;;1.00;0.82;;;16.20;85.80;;;;;;5053976;28;20442;-38
2022/09/10 01:04:03;;;;;;;3.55;2.10;;;16.10;85.30;;;;;;5052990;28;20036;-37
2022/09/10 01:06:29;;;;;;;3.38;1.63;;;16.10;85.80;;;;;;5053590;28;20052;-37
2022/09/10 01:08:54;;;;;;;2.33;1.35;;;16.00;85.50;;;;;;5053710;28;20024;-38
2022/09/10 01:11:41;;;;;;;6.05;1.45;;;16.00;85.50;;;;;;5053765;28;20480;-39
2022/09/10 01:14:43;;;;;;;3.83;1.40;;;16.00;84.90;;;;;;5053245;28;20095;-38
2022/09/10 01:17:30;;;;;;;4.22;1.48;;;16.00;84.60;;;;;;5053792;28;20021;-38
2022/09/10 01:20:10;;;;;;;4.30;1.05;;;16.00;84.90;;;;;;5053763;28;20155;-38
2022/09/10 01:22:55;;;;;;;5.68;0.90;;;16.00;85.00;;;;;;5052921;28;20063;-38
2022/09/10 01:25:42;;;;;;;6.78;1.33;;;15.90;85.30;;;;;;5053333;28;20029;-38
2022/09/10 01:28:16;;;;;;;5.25;1.55;;;16.00;85.30;;;;;;5053232;28;20025;-38
2022/09/10 01:30:45;;;;;;;4.75;1.40;;;16.00;84.90;;;;;;5053524;28;20025;-38
2022/09/10 01:33:14;;;;;;;4.83;1.63;;;16.00;85.10;;;;;;5053178;28;20393;-38
2022/09/10 01:35:49;;;;;;;11.45;3.25;;;15.90;85.10;;;;;;5053559;28;20103;-38
2022/09/10 01:38:30;;;;;;;4.80;1.80;;;16.00;85.20;;;;;;5053610;28;20369;-38
2022/09/10 01:40:56;;;;;;;;;;;16.00;85.00;;;;;;5053634;28;20053;-38
2022/09/10 01:43:22;;;;;;;6.75;2.13;;;16.00;84.70;;;;;;5053279;28;19943;-38
2022/09/10 01:45:50;;;;;;;2.72;1.45;;;15.90;84.60;;;;;;5053308;28;20035;-38
2022/09/10 01:48:31;;;;;;;2.92;1.83;;;16.00;84.60;;;;;;5053382;28;20522;-38
2022/09/10 01:51:07;;;;;;;3.30;1.30;;;15.90;84.70;;;;;;5053148;28;20473;-37
2022/09/10 01:53:36;;;;;;;5.20;1.67;;;15.90;84.50;;;;;;5052873;28;20083;-38
2022/09/10 01:56:27;;;;;;;6.97;1.63;;;16.00;84.70;;;;;;5052915;28;20495;-38
2022/09/10 01:59:02;;;;;;;3.55;1.58;;;16.10;84.50;;;;;;5053344;28;20029;-39
2022/09/10 02:02:04;;;;;;;1.95;1.80;;;16.10;84.20;;;;;;5052892;28;20025;-38
2022/09/10 02:04:31;;;;;;;2.28;2.05;;;16.10;84.20;;;;;;5051898;28;20037;-38
2022/09/10 02:06:57;;;;;;;5.07;1.70;;;16.00;84.60;;;;;;5051496;28;20116;-40
2022/09/10 02:09:23;;;;;;;22.10;5.95;;;16.00;85.00;;;;;;5052984;28;20025;-39
2022/09/10 02:11:52;;;;;;;6.82;1.50;;;16.10;84.80;;;;;;5052732;28;20025;-38
2022/09/10 02:14:20;;;;;;;3.53;1.65;;;16.10;84.90;;;;;;5052573;28;20433;-39
2022/09/10 02:17:04;;;;;;;4.82;1.50;;;16.00;84.70;;;;;;5052915;28;20017;-38
2022/09/10 02:19:30;;;;;;;3.35;1.30;;;15.90;85.00;;;;;;5052959;28;20117;-38
2022/09/10 02:21:57;;;;;;;3.58;1.60;;;15.90;85.50;;;;;;5052971;28;20049;-38
2022/09/10 02:24:23;;;;;;;6.93;1.88;;;15.90;85.00;;;;;;5052657;28;20048;-38
2022/09/10 02:26:49;;;;;;;8.60;2.00;;;15.90;85.10;;;;;;5052921;28;20021;-39
2022/09/10 02:29:16;;;;;;;3.47;1.70;;;15.90;85.20;;;;;;5052572;28;20021;-38
2022/09/10 02:31:42;;;;;;;4.72;2.25;;;15.90;85.40;;;;;;5052569;28;20033;-42
2022/09/10 02:34:09;;;;;;;8.68;2.45;;;15.90;85.30;;;;;;5052765;28;20021;-38
2022/09/10 02:36:36;;;;;;;4.10;1.50;;;15.90;85.40;;;;;;5056384;28;20025;-38
2022/09/10 02:39:03;;;;;;;6.50;1.70;;;16.00;85.30;;;;;;5056708;28;20028;-38
2022/09/10 02:41:33;;;;;;;1.70;0.88;;;15.90;85.00;;;;;;5056537;28;20021;-38
2022/09/10 02:44:00;;;;;;;1.77;0.90;;;15.90;85.50;;;;;;5056418;28;20033;-38
2022/09/10 02:46:27;;;;;;;5.45;1.30;;;15.80;85.60;;;;;;5057229;28;20025;-38
2022/09/10 02:48:54;;;;;;;7.03;1.45;;;15.80;85.70;;;;;;5056324;28;20021;-38
2022/09/10 02:51:21;;;;;;;2.22;1.30;;;15.90;85.30;;;;;;5056292;28;20116;-38
2022/09/10 02:53:48;;;;;;;3.70;1.33;;;16.00;85.30;;;;;;5056325;28;20028;-39
2022/09/10 02:56:14;;;;;;;4.97;1.48;;;16.00;85.10;;;;;;5056159;28;20017;-38
2022/09/10 02:58:40;;;;;;;6.25;1.98;;;16.10;85.00;;;;;;5056451;28;20445;-38
2022/09/10 03:01:19;;;;;;;3.40;1.50;;;16.00;84.70;;;;;;5056458;28;20028;-39
2022/09/10 03:03:57;;;;;;;8.43;1.47;;;16.10;85.00;;;;;;5056224;28;20028;-39
2022/09/10 03:06:24;;;;;;;2.53;1.15;;;16.10;84.90;;;;;;5056126;28;20499;-38
2022/09/10 03:08:50;;;;;;;3.05;1.60;;;16.10;84.80;;;;;;5056137;28;20028;-39
2022/09/10 03:11:17;;;;;;;1.20;1.02;;;16.10;84.90;;;;;;5056012;28;20473;-39
2022/09/10 03:13:44;;;;;;;2.22;1.38;;;16.10;85.00;;;;;;5055797;28;20037;-39
2022/09/10 03:16:12;;;;;;;7.20;1.58;;;16.00;85.70;;;;;;5056213;28;20424;-38
2022/09/10 03:18:39;;;;;;;5.60;1.35;;;15.80;86.50;;;;;;5056309;28;20458;-38
2022/09/10 03:21:17;;;;;;;3.70;1.95;;;15.70;87.70;;;;;;5055800;28;20025;-38
2022/09/10 03:23:44;;;;;;;3.90;1.80;;;15.40;88.70;;;;;;5055873;28;20017;-38
2022/09/10 03:26:13;;;;;;;9.18;3.28;;;15.30;89.30;;;;;;5055734;28;20040;-38
2022/09/10 03:28:39;;;;;;;5.22;1.92;;;15.30;89.90;;;;;;5055916;28;20025;-38
2022/09/10 03:31:06;;;;;;;3.95;2.05;;;15.40;89.80;;;;;;5055833;28;20354;-38
2022/09/10 03:33:32;;;;;;;14.80;5.00;;;15.30;90.10;;;;;;5055787;28;20068;-38
2022/09/10 03:35:58;;;;;;;2.58;1.50;;;15.30;90.20;;;;;;5055654;28;20446;-39
2022/09/10 03:38:24;;;;;;;7.38;2.50;;;15.40;90.30;;;;;;5055541;28;20052;-38
2022/09/10 03:40:50;;;;;;;11.07;2.65;;;15.30;90.10;;;;;;5055738;28;20039;-38
2022/09/10 03:43:16;;;;;;;5.50;2.03;;;15.30;90.30;;;;;;5055348;28;20025;-38
2022/09/10 03:45:42;;;;;;;5.60;2.15;;;15.30;90.30;;;;;;5053588;28;20334;-37
2022/09/10 03:48:07;;;;;;;5.05;2.53;;;15.30;90.30;;;;;;5055475;28;20071;-38
2022/09/10 03:50:33;;;;;;;4.53;3.17;;;15.30;90.60;;;;;;5055219;28;20025;-38
2022/09/10 03:53:00;;;;;;;5.43;2.03;;;15.40;90.60;;;;;;5055152;28;20104;-38
2022/09/10 03:55:26;;;;;;;4.63;2.10;;;15.30;90.60;;;;;;5055319;28;20145;-39
2022/09/10 03:57:51;;;;;;;4.93;2.20;;;15.30;90.80;;;;;;5055069;28;20401;-39
2022/09/10 04:00:17;;;;;;;4.40;2.42;;;15.40;90.70;;;;;;5054988;28;20067;-39
2022/09/10 04:02:43;;;;;;;7.32;2.70;;;15.30;90.60;;;;;;5055029;28;20087;-38
2022/09/10 04:05:09;;;;;;;6.35;2.13;;;15.30;90.70;;;;;;5053709;28;20025;-39
2022/09/10 04:07:35;;;;;;;7.85;2.85;;;15.40;90.90;;;;;;5054922;28;20025;-39
2022/09/10 04:10:02;;;;;;;4.32;2.50;;;15.40;91.00;;;;;;5055101;28;20053;-39
2022/09/10 04:12:28;;;;;;;4.43;2.38;;;15.30;90.90;;;;;;5054818;28;20112;-39
2022/09/10 04:14:54;;;;;;;6.63;3.22;;;15.30;91.00;;;;;;5053293;28;20049;-39
2022/09/10 04:17:19;;;;;;;8.35;3.10;;;15.30;91.20;;;;;;5054721;28;20307;-38
2022/09/10 04:19:45;;;;;;;3.75;2.22;;;15.30;91.40;;;;;;5054836;28;20131;-38
2022/09/10 04:22:11;;;;;;;7.05;2.30;;;15.30;91.60;;;;;;5054638;28;20473;-38
2022/09/10 04:24:36;;;;;;;6.80;2.65;;;15.30;91.60;;;;;;5054640;28;20047;-38
2022/09/10 04:27:02;;;;;;;9.02;3.53;;;15.30;91.60;;;;;;5054527;28;20025;-38
2022/09/10 04:29:28;;;;;;;5.85;3.30;;;15.30;91.60;;;;;;5054790;28;20079;-38
2022/09/10 04:31:54;;;;;;;6.95;3.47;;;15.30;91.60;;;;;;5054899;28;20040;-38
2022/09/10 04:34:21;;;;;;;8.52;3.92;;;15.30;91.70;;;;;;5054422;28;20481;-39
2022/09/10 04:36:48;;;;;;;4.93;3.85;;;15.30;91.60;;;;;;5053139;28;20090;-38
2022/09/10 04:39:15;;;;;;;8.45;3.50;;;15.30;91.80;;;;;;5054311;28;20023;-38
2022/09/10 04:41:41;;;;;;;4.45;3.00;;;15.30;91.60;;;;;;5053083;28;20040;-38
2022/09/10 04:44:06;;;;;;;4.88;3.22;;;15.30;91.40;;;;;;5054256;28;20021;-38
2022/09/10 04:46:32;;;;;;;3.55;3.00;;;15.30;91.60;;;;;;5052821;28;20036;-38
2022/09/10 04:48:59;;;;;;;14.65;3.58;;;15.30;91.60;;;;;;5052824;28;20032;-38
2022/09/10 04:51:25;;;;;;;6.53;3.70;;;15.30;91.50;;;;;;5052806;28;20567;-38
2022/09/10 04:53:51;;;;;;;5.97;4.00;;;15.30;91.50;;;;;;5054220;28;20036;-38
2022/09/10 18:14:57;;;;;;;26.90;20.75;;;16.50;92.90;;;;;;4991029;28;20392;-38
2022/09/10 18:17:23;;;;;;;26.38;20.42;;;16.50;92.90;;;;;;4990870;28;20026;-40
2022/09/10 18:19:49;;;;;;;33.35;23.40;;;16.60;92.90;;;;;;4990657;28;20022;-38
2022/09/10 18:22:14;;;;;;;34.35;23.30;;;16.60;92.90;;;;;;4990478;28;20054;-39
2022/09/10 18:24:41;;;;;;;28.13;21.40;;;16.70;92.90;;;;;;4990578;28;20027;-38
2022/09/10 18:27:07;;;;;;;27.88;21.50;;;16.80;92.90;;;;;;4988971;28;20046;-38
2022/09/10 18:29:33;;;;;;;26.40;21.00;;;16.80;92.70;;;;;;4990724;28;20050;-38
2022/09/10 18:32:00;;;;;;;27.65;19.50;;;16.80;92.80;;;;;;4990483;28;20023;-38
2022/09/10 18:34:28;;;;;;;22.88;18.85;;;16.80;92.80;;;;;;4990201;28;20035;-38
2022/09/10 18:36:56;;;;;;;23.48;19.50;;;16.80;92.80;;;;;;4990381;28;20038;-38
2022/09/10 18:39:23;;;;;;;24.35;19.83;;;16.70;92.90;;;;;;4989782;28;20077;-37
2022/09/10 18:41:50;;;;;;;25.58;20.10;;;16.80;93.10;;;;;;4990279;28;20085;-38
2022/09/10 18:44:19;;;;;;;28.17;20.35;;;16.70;93.10;;;;;;4989921;28;20113;-37
2022/09/10 18:46:46;;;;;;;23.13;19.15;;;16.70;93.20;;;;;;4989853;28;20031;-39
2022/09/10 18:49:17;;;;;;;22.30;18.75;;;16.70;93.20;;;;;;4988344;28;20027;-38
2022/09/10 18:51:43;;;;;;;;;;;16.60;93.30;;;;;;4988672;28;20031;-38
2022/09/10 18:54:11;;;;;;;30.60;19.90;;;16.60;93.30;;;;;;4988519;28;19956;-38
2022/09/10 18:56:38;;;;;;;31.58;20.45;;;16.70;93.40;;;;;;4989816;28;20022;-38
2022/09/10 18:59:09;;;;;;;25.27;19.52;;;16.60;93.40;;;;;;4988572;28;20029;-38
2022/09/10 19:01:36;;;;;;;;;;;16.60;93.40;;;;;;4990718;28;20025;-38
2022/09/10 19:04:04;;;;;;;31.42;20.52;;;16.70;93.50;;;;;;4990130;28;19906;-38
2022/09/10 19:06:34;;;;;;;28.52;22.55;;;16.80;93.30;;;;;;4989513;28;20038;-38
2022/09/10 19:09:03;;;;;;;27.80;20.98;;;16.80;93.10;;;;;;4989526;28;20365;-38
2022/09/10 19:11:38;;;;;;;32.78;23.05;;;16.80;93.10;;;;;;4989684;28;20039;-38
2022/09/10 19:14:07;;;;;;;29.40;21.63;;;16.80;93.10;;;;;;5001975;28;20132;-39
2022/09/10 19:16:34;;;;;;;31.77;21.88;;;16.80;92.90;;;;;;5009116;28;20093;-38
2022/09/10 19:19:03;;;;;;;29.95;22.27;;;16.90;92.90;;;;;;5008283;28;20466;-39
2022/09/10 19:21:31;;;;;;;26.20;20.48;;;16.80;92.60;;;;;;5009246;28;20026;-38
2022/09/10 19:24:00;;;;;;;27.02;20.88;;;16.80;92.70;;;;;;5008877;28;20026;-38
2022/09/10 19:26:29;;;;;;;28.58;20.17;;;16.80;92.70;;;;;;4995061;28;20092;-38
2022/09/10 19:28:59;;;;;;;27.42;20.83;;;16.80;92.70;;;;;;4994581;28;20049;-38
2022/09/10 19:31:27;;;;;;;28.63;19.98;;;16.80;92.50;;;;;;4995926;28;20077;-39
2022/09/10 19:33:55;;;;;;;25.48;19.73;;;16.80;92.50;;;;;;4995623;28;20506;-38
2022/09/10 19:36:21;;;;;;;33.67;21.88;;;16.80;92.60;;;;;;4994695;28;20120;-39
2022/09/10 19:38:46;;;;;;;29.00;20.58;;;16.70;92.70;;;;;;4995339;28;20351;-38
2022/09/10 19:41:18;;;;;;;22.15;18.25;;;16.80;92.80;;;;;;4995214;28;20463;-38
2022/09/10 19:43:45;;;;;;;23.13;16.92;;;16.80;92.80;;;;;;4995746;28;20030;-38
2022/09/10 19:46:11;;;;;;;27.02;18.20;;;16.80;92.60;;;;;;4995287;28;20385;-39
2022/09/10 19:48:41;;;;;;;29.80;18.73;;;16.70;92.70;;;;;;4995156;28;20097;-38
2022/09/10 19:51:09;;;;;;;24.10;17.85;;;16.80;92.70;;;;;;4995248;28;20026;-40
2022/09/10 19:53:39;;;;;;;22.73;17.75;;;16.80;92.40;;;;;;4993895;28;20042;-39
2022/09/10 19:56:09;;;;;;;23.50;16.80;;;16.80;92.30;;;;;;4995231;28;20030;-39
2022/09/10 19:58:36;;;;;;;21.08;17.48;;;16.80;92.30;;;;;;4995139;28;20030;-39
2022/09/10 20:01:12;;;;;;;22.65;18.25;;;16.80;92.20;;;;;;4995303;28;20094;-38
2022/09/10 20:03:40;;;;;;;25.63;18.90;;;16.80;92.20;;;;;;4994090;28;20465;-38
2022/09/10 20:06:07;;;;;;;22.05;16.77;;;16.80;92.00;;;;;;4995248;28;20018;-39
2022/09/10 20:08:34;;;;;;;24.83;17.83;;;16.80;91.90;;;;;;4994938;28;20390;-38
2022/09/10 20:11:04;;;;;;;19.42;14.75;;;16.80;92.10;;;;;;4995011;28;20561;-37
2022/09/10 20:13:31;;;;;;;17.80;13.98;;;16.80;92.00;;;;;;4994852;28;20070;-38
2022/09/10 20:16:05;;;;;;;18.80;14.80;;;16.80;91.80;;;;;;4993841;28;20061;-38
2022/09/10 20:18:33;;;;;;;19.75;14.90;;;16.80;91.80;;;;;;4995031;28;20098;-38
2022/09/10 20:21:10;;;;;;;20.60;15.88;;;16.80;91.70;;;;;;4995076;28;20029;-39
2022/09/10 20:23:37;;;;;;;19.90;15.82;;;16.80;92.00;;;;;;4994805;28;20034;-39
2022/09/10 20:26:26;;;;;;;21.05;16.55;;;16.90;91.70;;;;;;4995060;28;20493;-38
2022/09/10 20:28:57;;;;;;;22.83;16.95;;;16.90;91.30;;;;;;4994805;28;20018;-38
2022/09/10 20:31:25;;;;;;;24.17;16.20;;;16.80;91.60;;;;;;4994796;28;20026;-39
2022/09/10 20:33:56;;;;;;;21.55;18.23;;;16.80;91.50;;;;;;4994432;28;20088;-38
2022/09/10 20:36:24;;;;;;;20.45;16.45;;;16.80;91.60;;;;;;4992395;28;20026;-39
2022/09/10 20:38:52;;;;;;;21.77;16.20;;;16.80;91.70;;;;;;4994674;28;20470;-40
2022/09/10 20:41:18;;;;;;;22.25;15.55;;;16.70;91.70;;;;;;4993833;28;20144;-39
2022/09/10 20:43:48;;;;;;;27.75;16.13;;;16.60;91.90;;;;;;4994707;28;20034;-39
2022/09/10 20:46:15;;;;;;;20.60;15.88;;;16.70;92.20;;;;;;4994639;28;20026;-38
2022/09/10 20:48:42;;;;;;;22.92;16.33;;;16.70;92.20;;;;;;4993879;28;20023;-39
2022/09/10 20:51:09;;;;;;;20.13;16.73;;;16.70;92.00;;;;;;4994384;28;20034;-39
2022/09/10 20:53:37;;;;;;;26.58;17.45;;;16.60;91.90;;;;;;4994313;28;20022;-39
2022/09/10 20:56:05;;;;;;;18.63;16.27;;;16.70;92.10;;;;;;4994322;28;20034;-38
2022/09/10 20:58:35;;;;;;;22.30;17.23;;;16.60;92.00;;;;;;4994761;28;20121;-38
2022/09/10 21:01:13;;;;;;;23.50;17.10;;;16.60;92.10;;;;;;4993069;28;20022;-40
2022/09/10 21:03:40;;;;;;;19.45;16.30;;;16.60;92.30;;;;;;4994507;28;20137;-39
2022/09/10 21:06:09;;;;;;;20.33;15.52;;;16.70;92.00;;;;;;4994792;28;20041;-39
2022/09/10 21:08:36;;;;;;;21.67;16.15;;;16.70;91.90;;;;;;4992898;28;20030;-39
2022/09/10 21:11:07;;;;;;;19.77;16.15;;;16.70;92.00;;;;;;4994480;28;20397;-39
2022/09/10 21:13:37;;;;;;;22.83;17.20;;;16.60;92.00;;;;;;4992799;28;20071;-38
2022/09/10 21:16:10;;;;;;;;;;;16.70;92.10;;;;;;4993563;28;20026;-39
2022/09/10 21:18:36;;;;;;;22.77;16.33;;;16.60;91.90;;;;;;4994500;28;19929;-38
2022/09/10 21:21:10;;;;;;;20.10;16.05;;;16.80;91.80;;;;;;4994816;28;20101;-39
2022/09/10 21:23:47;;;;;;;21.27;16.65;;;16.60;91.60;;;;;;4994386;28;20113;-40
2022/09/10 21:26:14;;;;;;;24.92;15.10;;;16.50;91.90;;;;;;4994578;28;20129;-38
2022/09/10 21:28:41;;;;;;;23.33;17.60;;;16.40;91.80;;;;;;4994367;28;20474;-38
2022/09/10 21:31:08;;;;;;;21.45;14.88;;;16.40;92.00;;;;;;4994100;28;20084;-37
2022/09/10 21:33:35;;;;;;;21.02;16.20;;;16.30;92.20;;;;;;4993795;28;20143;-38
2022/09/10 21:36:10;;;;;;;31.08;16.77;;;16.30;92.40;;;;;;4993821;28;20073;-39
2022/09/10 21:38:36;;;;;;;22.17;16.75;;;16.30;92.50;;;;;;4993899;28;20033;-39
2022/09/10 21:41:05;;;;;;;24.08;16.90;;;16.30;92.70;;;;;;4994006;28;20090;-38
2022/09/10 21:43:33;;;;;;;24.38;17.13;;;16.20;92.80;;;;;;4993612;28;20033;-38
2022/09/10 21:46:04;;;;;;;23.33;16.63;;;16.10;92.80;;;;;;4994156;28;20038;-38
2022/09/10 21:48:31;;;;;;;20.27;16.23;;;16.20;93.00;;;;;;4993929;28;20038;-38
2022/09/10 21:50:58;;;;;;;24.33;18.60;;;16.10;92.90;;;;;;4993701;28;20490;-39
2022/09/10 21:53:25;;;;;;;23.65;17.63;;;16.10;93.00;;;;;;4993578;28;20116;-38
2022/09/10 21:56:00;;;;;;;23.77;17.15;;;16.10;93.00;;;;;;4993112;28;20018;-41
2022/09/10 21:58:27;;;;;;;30.00;18.65;;;16.10;93.10;;;;;;4993932;28;20022;-39
2022/09/10 22:00:56;;;;;;;32.58;19.83;;;16.00;93.10;;;;;;4994113;28;20415;-38
2022/09/10 22:03:21;;;;;;;29.73;21.00;;;16.00;93.20;;;;;;4994179;28;20026;-37
2022/09/10 22:05:47;;;;;;;27.52;20.63;;;16.20;93.40;;;;;;4993882;28;20466;-39
2022/09/10 22:08:13;;;;;;;24.15;18.98;;;16.10;93.00;;;;;;4993938;28;20360;-38
2022/09/10 22:10:40;;;;;;;26.13;19.17;;;16.20;93.00;;;;;;4993531;28;20069;-44
2022/09/10 22:13:06;;;;;;;30.67;19.98;;;16.20;93.10;;;;;;4993382;28;20046;-39
2022/09/10 22:15:40;;;;;;;27.40;19.83;;;16.10;93.00;;;;;;4993728;28;20026;-38
2022/09/10 22:18:07;;;;;;;25.33;18.83;;;16.20;93.10;;;;;;4994055;28;20080;-38
2022/09/10 22:20:34;;;;;;;29.65;18.52;;;16.10;92.90;;;;;;4993739;28;20019;-39
2022/09/10 22:23:00;;;;;;;24.98;18.83;;;16.10;93.00;;;;;;4993411;28;20076;-39
2022/09/10 22:25:25;;;;;;;27.63;18.92;;;16.00;93.00;;;;;;4993551;28;20109;-39
2022/09/10 22:27:51;;;;;;;22.42;17.75;;;16.00;93.10;;;;;;4993477;28;20415;-38
2022/09/10 22:30:17;;;;;;;25.33;18.98;;;16.00;93.10;;;;;;4993939;28;20134;-38
2022/09/10 22:32:42;;;;;;;27.15;18.55;;;16.00;93.00;;;;;;4993805;28;20080;-40
2022/09/10 22:35:08;;;;;;;26.27;19.02;;;16.00;93.10;;;;;;4994534;28;20125;-39
2022/09/10 22:37:34;;;;;;;24.63;17.55;;;16.00;93.00;;;;;;4994651;28;20353;-39
2022/09/10 22:40:00;;;;;;;24.60;17.92;;;15.90;93.10;;;;;;4993819;28;20479;-38
2022/09/10 22:42:29;;;;;;;28.58;19.75;;;15.80;93.10;;;;;;4992395;28;20065;-40
2022/09/10 22:44:55;;;;;;;24.42;18.42;;;15.80;93.20;;;;;;4994014;28;20350;-39
2022/09/10 22:47:21;;;;;;;30.55;18.30;;;15.80;93.30;;;;;;4992561;28;20030;-39
2022/09/10 22:49:47;;;;;;;25.98;18.63;;;15.70;93.30;;;;;;4993493;28;20030;-39
2022/09/10 22:52:13;;;;;;;27.77;18.38;;;15.70;93.40;;;;;;4993772;28;20026;-38
2022/09/10 22:54:38;;;;;;;34.22;20.48;;;15.70;93.60;;;;;;4993197;28;20038;-38
2022/09/10 22:57:04;;;;;;;25.67;19.02;;;15.70;93.60;;;;;;4993230;28;20025;-38
2022/09/10 22:59:36;;;;;;;26.98;19.88;;;15.70;93.70;;;;;;4993391;28;20022;-39
2022/09/10 23:02:02;;;;;;;26.17;18.25;;;15.60;93.80;;;;;;4997229;28;20068;-37
2022/09/10 23:04:28;;;;;;;32.72;19.65;;;15.60;93.80;;;;;;4996846;28;20382;-37
2022/09/10 23:06:53;;;;;;;25.75;17.95;;;15.60;93.90;;;;;;4996684;28;20022;-38
2022/09/10 23:09:19;;;;;;;33.65;21.55;;;15.60;93.90;;;;;;4997224;28;20041;-38
2022/09/10 23:11:45;;;;;;;30.45;19.65;;;15.60;93.90;;;;;;4995294;28;20041;-40
2022/09/10 23:14:14;;;;;;;32.25;20.77;;;15.50;93.80;;;;;;4996288;28;20442;-38
2022/09/10 23:16:42;;;;;;;28.73;20.50;;;15.50;93.90;;;;;;4995219;28;20018;-39
2022/09/10 23:19:13;;;;;;;33.58;20.73;;;15.50;93.90;;;;;;4996449;28;20105;-38
2022/09/10 23:21:41;;;;;;;29.73;20.23;;;15.40;93.90;;;;;;4996605;28;20178;-38
2022/09/10 23:24:11;;;;;;;32.65;20.90;;;15.40;94.00;;;;;;4996205;28;20036;-38
2022/09/10 23:26:38;;;;;;;31.90;19.15;;;15.40;94.10;;;;;;4996505;28;20034;-38
2022/09/10 23:29:04;;;;;;;34.22;21.27;;;15.40;94.10;;;;;;4996387;28;20046;-38
2022/09/10 23:31:32;;;;;;;33.35;20.60;;;15.40;94.00;;;;;;4996290;28;20030;-38
2022/09/10 23:34:00;;;;;;;35.88;21.70;;;15.40;94.20;;;;;;4996114;28;20027;-38
2022/09/10 23:36:38;;;;;;;32.42;21.80;;;15.40;94.20;;;;;;4996451;28;20033;-38
2022/09/10 23:39:07;;;;;;;32.30;21.45;;;15.30;94.10;;;;;;4995978;28;20054;-39
2022/09/10 23:41:35;;;;;;;36.78;21.95;;;15.30;94.20;;;;;;4996048;28;20037;-39
2022/09/10 23:44:01;;;;;;;39.00;22.10;;;15.30;94.20;;;;;;4996125;28;20383;-38
2022/09/10 23:46:27;;;;;;;32.70;21.85;;;15.30;94.30;;;;;;4996202;28;20060;-39
2022/09/10 23:48:53;;;;;;;37.65;23.63;;;15.30;94.30;;;;;;4995910;28;20051;-38
2022/09/10 23:51:20;;;;;;;35.03;21.92;;;15.20;94.30;;;;;;4996018;28;20026;-38
2022/09/10 23:53:47;;;;;;;37.50;23.48;;;15.10;94.30;;;;;;4995750;28;20085;-38
2022/09/10 23:56:18;;;;;;;38.97;23.13;;;15.10;94.40;;;;;;4995727;28;20122;-39
2022/09/10 23:58:44;;;;;;;37.20;23.77;;;15.10;94.50;;;;;;4995760;28;20033;-39
